Time;durP1;ratioP1;P1;durP2;ratioP2;P2;SDS_P1;SDS_P2;PMS_P1;PMS_P2;Temp;Humidity;BMP_temperature;BMP_pressure;BME280_temperature;BME280_humidity;BME280_pressure;Samples;Min_cycle;Max_cycle;Signal;HPM_P1;HPM_P2
2022/12/09 00:00:41;;;;;;;20.9;12.1;;;;;;;3.6;78.1;98050;;;;
2022/12/09 00:11:41;;;;;;;20.4;13.5;;;;;;;3.6;78.3;98060;;;;
2022/12/09 00:21:42;;;;;;;20.4;13.5;;;;;;;3.5;79.2;98050;;;;
2022/12/09 00:32:41;;;;;;;20.4;13.5;;;;;;;3.5;80.1;98050;;;;
2022/12/09 00:43:41;;;;;;;47.9;30.7;;;;;;;3.4;81.5;98070;;;;
2022/12/09 00:53:41;;;;;;;47.9;30.7;;;;;;;3.4;82;98070;;;;
2022/12/09 01:03:41;;;;;;;47.9;30.7;;;;;;;3.4;82.2;98070;;;;
2022/12/09 01:14:41;;;;;;;69.5;45.2;;;;;;;3.4;82.2;98080;;;;
2022/12/09 01:25:41;;;;;;;69.5;45.2;;;;;;;3.3;82.5;98080;;;;
2022/12/09 01:36:41;;;;;;;69.5;45.2;;;;;;;3.3;82.4;98080;;;;
2022/12/09 01:46:41;;;;;;;56.2;37.4;;;;;;;3.3;81.5;98080;;;;
2022/12/09 01:56:41;;;;;;;56.2;37.4;;;;;;;3.3;80.8;98080;;;;
2022/12/09 02:07:41;;;;;;;56.2;37.4;;;;;;;3.2;80.3;98070;;;;
2022/12/09 02:17:41;;;;;;;48.5;26.5;;;;;;;3.3;80.1;98060;;;;
2022/12/09 02:27:41;;;;;;;48.5;26.5;;;;;;;3.4;80;98060;;;;
2022/12/09 02:37:41;;;;;;;48.5;26.5;;;;;;;3.3;80.3;98050;;;;
2022/12/09 02:48:41;;;;;;;35.9;23.3;;;;;;;3.2;80.6;98050;;;;
2022/12/09 02:58:41;;;;;;;35.9;23.3;;;;;;;3.2;80.6;98050;;;;
2022/12/09 03:09:41;;;;;;;35.9;23.3;;;;;;;3.1;80.7;98050;;;;
2022/12/09 03:20:41;;;;;;;35.9;25.7;;;;;;;3.1;81;98030;;;;
2022/12/09 03:31:41;;;;;;;35.9;25.7;;;;;;;3.1;80.9;98030;;;;
2022/12/09 03:42:41;;;;;;;31.3;20.6;;;;;;;3;80.9;98020;;;;
2022/12/09 03:52:41;;;;;;;31.3;20.6;;;;;;;2.9;81;98030;;;;
2022/12/09 04:03:41;;;;;;;31.3;20.6;;;;;;;2.8;81.4;98030;;;;
2022/12/09 04:13:41;;;;;;;28.6;17.4;;;;;;;2.7;81.7;98030;;;;
2022/12/09 04:23:41;;;;;;;28.6;17.4;;;;;;;2.5;81.6;98030;;;;
2022/12/09 04:33:41;;;;;;;28.6;17.4;;;;;;;2.4;81.7;98040;;;;
2022/12/09 04:43:41;;;;;;;31.2;18.7;;;;;;;2.3;81.8;98030;;;;
2022/12/09 04:54:43;;;;;;;31.2;18.7;;;;;;;2.1;81.9;98030;;;;
2022/12/09 05:04:41;;;;;;;31.2;18.7;;;;;;;1.7;82.5;98040;;;;
2022/12/09 05:15:41;;;;;;;34.9;19.1;;;;;;;1.6;83.1;98040;;;;
2022/12/09 05:25:41;;;;;;;34.9;19.1;;;;;;;1.3;83;98030;;;;
2022/12/09 05:36:41;;;;;;;34.9;19.1;;;;;;;0.9;83.4;98030;;;;
2022/12/09 05:47:41;;;;;;;24.9;13.5;;;;;;;0.7;84;98030;;;;
2022/12/09 05:58:42;;;;;;;24.9;13.5;;;;;;;0.6;84.1;98020;;;;
2022/12/09 06:09:43;;;;;;;24.9;13.5;;;;;;;0.3;84;98030;;;;
2022/12/09 06:20:41;;;;;;;24.3;13.3;;;;;;;0;84.6;98030;;;;
2022/12/09 06:31:41;;;;;;;24.3;13.3;;;;;;;-0.2;85;98040;;;;
2022/12/09 06:41:42;;;;;;;25.6;14;;;;;;;-0.4;85.2;98040;;;;
2022/12/09 06:52:41;;;;;;;25.6;14;;;;;;;-0.5;85.5;98040;;;;
2022/12/09 07:02:41;;;;;;;25.6;14;;;;;;;-0.6;86.4;98040;;;;
2022/12/09 07:12:41;;;;;;;30.8;15.7;;;;;;;-0.6;86.4;98040;;;;
2022/12/09 07:23:42;;;;;;;30.8;15.7;;;;;;;-0.5;86.8;98020;;;;
2022/12/09 07:34:41;;;;;;;30.8;15.7;;;;;;;-0.4;86.8;98000;;;;
2022/12/09 07:44:41;;;;;;;25.5;13.7;;;;;;;-0.3;87.1;98000;;;;
2022/12/09 07:55:42;;;;;;;25.5;13.7;;;;;;;0;87.3;97990;;;;
2022/12/09 08:06:42;;;;;;;25.5;13.7;;;;;;;0.2;87.4;98000;;;;
2022/12/09 08:17:41;;;;;;;28.7;16.6;;;;;;;0.5;87.5;98010;;;;
2022/12/09 08:28:42;;;;;;;28.7;16.6;;;;;;;0.9;87.4;98010;;;;
2022/12/09 08:38:42;;;;;;;28.7;16.6;;;;;;;1.2;87.1;98010;;;;
2022/12/09 08:49:42;;;;;;;40.4;23.6;;;;;;;1.6;86.9;98010;;;;
2022/12/09 08:59:42;;;;;;;40.4;23.6;;;;;;;2;86.1;98010;;;;
2022/12/09 09:09:42;;;;;;;34.6;20.6;;;;;;;2.3;85;97990;;;;
2022/12/09 09:19:42;;;;;;;34.6;20.6;;;;;;;2.5;84.3;98000;;;;
2022/12/09 09:30:42;;;;;;;34.6;20.6;;;;;;;2.9;83.6;97990;;;;
2022/12/09 09:41:42;;;;;;;27.5;17.2;;;;;;;3.3;83.2;97970;;;;
2022/12/09 09:52:42;;;;;;;27.5;17.2;;;;;;;3.7;81.9;97970;;;;
2022/12/09 10:03:42;;;;;;;27.5;17.2;;;;;;;4.1;80.4;97960;;;;
2022/12/09 10:13:42;;;;;;;29.2;19.8;;;;;;;4.4;79.1;97950;;;;
2022/12/09 10:24:42;;;;;;;29.2;19.8;;;;;;;4.6;76.9;97940;;;;
2022/12/09 10:35:42;;;;;;;29.2;19.8;;;;;;;5.1;75.6;97930;;;;
2022/12/09 10:45:42;;;;;;;27.6;18.2;;;;;;;5.2;74.4;97910;;;;
2022/12/09 10:56:42;;;;;;;27.6;18.2;;;;;;;5.6;74.6;97910;;;;
2022/12/09 11:06:42;;;;;;;27.6;18.2;;;;;;;5.8;73.9;97910;;;;
2022/12/09 11:17:42;;;;;;;23;17.5;;;;;;;6.1;72.1;97900;;;;
2022/12/09 11:27:42;;;;;;;23;17.5;;;;;;;6.3;70.7;97910;;;;
2022/12/09 11:38:42;;;;;;;23;17.5;;;;;;;6.4;70.2;97900;;;;
2022/12/09 11:48:42;;;;;;;17;13.4;;;;;;;6.3;67.5;97890;;;;
2022/12/09 11:59:42;;;;;;;17;13.4;;;;;;;5.8;67.7;97890;;;;
2022/12/09 12:09:42;;;;;;;15.9;12.5;;;;;;;5.5;68.4;97860;;;;
2022/12/09 12:19:42;;;;;;;15.9;12.5;;;;;;;5.4;69;97820;;;;
2022/12/09 12:30:42;;;;;;;15.9;12.5;;;;;;;5.2;69.2;97830;;;;
2022/12/09 12:40:42;;;;;;;16.5;11.4;;;;;;;5.2;69.8;97820;;;;
2022/12/09 12:50:42;;;;;;;16.5;11.4;;;;;;;5.2;70.2;97820;;;;
2022/12/09 13:01:42;;;;;;;16.5;11.4;;;;;;;5.2;70.2;97800;;;;
2022/12/09 13:11:45;;;;;;;15.5;10.9;;;;;;;5.2;71.3;97800;;;;
2022/12/09 13:21:42;;;;;;;15.5;10.9;;;;;;;5.2;71.8;97780;;;;
2022/12/09 13:32:42;;;;;;;15.5;10.9;;;;;;;5.2;71.3;97760;;;;
2022/12/09 13:43:42;;;;;;;22.6;14.6;;;;;;;5.1;71.7;97740;;;;
2022/12/09 13:53:42;;;;;;;22.6;14.6;;;;;;;4.6;73.9;97750;;;;
2022/12/09 14:04:42;;;;;;;22.6;14.6;;;;;;;4.5;74.5;97740;;;;
2022/12/09 14:15:42;;;;;;;18.7;13.8;;;;;;;4.4;75.2;97750;;;;
2022/12/09 14:25:42;;;;;;;18.7;13.8;;;;;;;4.3;75.6;97750;;;;
2022/12/09 14:36:42;;;;;;;18.7;13.8;;;;;;;4.3;75.7;97750;;;;
2022/12/09 14:46:42;;;;;;;31.6;22.6;;;;;;;4.1;76.2;97750;;;;
2022/12/09 14:57:42;;;;;;;31.6;22.6;;;;;;;4;77.7;97740;;;;
2022/12/09 15:08:42;;;;;;;29.4;22.3;;;;;;;3.7;79.8;97740;;;;
2022/12/09 15:18:42;;;;;;;29.4;22.3;;;;;;;3.7;80.7;97730;;;;
2022/12/09 15:29:42;;;;;;;29.4;22.3;;;;;;;3.5;81.3;97710;;;;
2022/12/09 15:39:42;;;;;;;21.4;12.8;;;;;;;3.3;82.1;97700;;;;
2022/12/09 15:49:42;;;;;;;21.4;12.8;;;;;;;3.1;82.8;97680;;;;
2022/12/09 16:00:42;;;;;;;21.4;12.8;;;;;;;2.8;84.1;97660;;;;
2022/12/09 16:10:42;;;;;;;22.3;14.8;;;;;;;2.5;84.8;97640;;;;
2022/12/09 16:20:42;;;;;;;22.3;14.8;;;;;;;2.3;86.1;97620;;;;
2022/12/09 16:30:42;;;;;;;22.3;14.8;;;;;;;2.2;86;97620;;;;
2022/12/09 16:41:42;;;;;;;27.7;17.6;;;;;;;1.9;87.3;97580;;;;
2022/12/09 16:52:42;;;;;;;27.7;17.6;;;;;;;1.9;87.7;97580;;;;
2022/12/09 17:02:42;;;;;;;27.7;17.6;;;;;;;1.8;88.2;97570;;;;
2022/12/09 17:12:42;;;;;;;22.2;14.6;;;;;;;1.7;88.7;97570;;;;
2022/12/09 17:23:42;;;;;;;22.2;14.6;;;;;;;1.6;89.1;97570;;;;
2022/12/09 17:33:42;;;;;;;22.2;14.6;;;;;;;1.6;89.5;97560;;;;
2022/12/09 17:44:42;;;;;;;24.2;13.2;;;;;;;1.6;89.5;97550;;;;
2022/12/09 17:55:42;;;;;;;24.2;13.2;;;;;;;1.4;89.8;97540;;;;
2022/12/09 18:06:42;;;;;;;24.2;13.2;;;;;;;1.5;90.2;97530;;;;
2022/12/09 18:16:42;;;;;;;18.7;11.1;;;;;;;1.5;90.1;97520;;;;
2022/12/09 18:26:42;;;;;;;18.7;11.1;;;;;;;1.4;90.3;97520;;;;
2022/12/09 18:37:42;;;;;;;18.7;11.1;;;;;;;1.4;90.6;97510;;;;
2022/12/09 18:48:42;;;;;;;31.6;16.9;;;;;;;1.4;90.7;97490;;;;
2022/12/09 18:58:42;;;;;;;31.6;16.9;;;;;;;1.4;90.8;97480;;;;
2022/12/09 19:08:42;;;;;;;24.1;14.4;;;;;;;1.4;90.7;97480;;;;
2022/12/09 19:19:44;;;;;;;24.1;14.4;;;;;;;1.4;90.7;97480;;;;
2022/12/09 19:30:42;;;;;;;24.1;14.4;;;;;;;1.4;90.8;97450;;;;
2022/12/09 19:40:42;;;;;;;18.1;11.6;;;;;;;1.3;91;97450;;;;
2022/12/09 19:50:42;;;;;;;18.1;11.6;;;;;;;1.4;90.9;97430;;;;
2022/12/09 20:01:42;;;;;;;18.1;11.6;;;;;;;1.4;90.8;97440;;;;
2022/12/09 20:11:42;;;;;;;16.8;11.5;;;;;;;1.4;90.8;97450;;;;
2022/12/09 20:22:42;;;;;;;16.8;11.5;;;;;;;1.4;90.9;97430;;;;
2022/12/09 20:33:42;;;;;;;16.8;11.5;;;;;;;1.4;90.9;97420;;;;
2022/12/09 20:43:42;;;;;;;17.5;10.5;;;;;;;1.5;90.8;97410;;;;
2022/12/09 20:53:42;;;;;;;17.5;10.5;;;;;;;1.5;90.7;97410;;;;
2022/12/09 21:04:42;;;;;;;17.5;10.5;;;;;;;1.5;90.6;97400;;;;
2022/12/09 21:14:42;;;;;;;12.6;7.2;;;;;;;1.5;90.5;97410;;;;
2022/12/09 21:24:42;;;;;;;12.6;7.2;;;;;;;1.5;90.6;97410;;;;
2022/12/09 21:35:43;;;;;;;12.6;7.2;;;;;;;1.5;90.4;97410;;;;
2022/12/09 21:46:42;;;;;;;17.3;10.7;;;;;;;1.6;90.4;97400;;;;
2022/12/09 21:56:42;;;;;;;17.3;10.7;;;;;;;1.6;90.3;97410;;;;
2022/12/09 22:06:44;;;;;;;17.3;10.7;;;;;;;1.6;90.1;97410;;;;
2022/12/09 22:17:42;;;;;;;17.8;10.5;;;;;;;1.7;90.1;97400;;;;
2022/12/09 22:27:42;;;;;;;17.8;10.5;;;;;;;1.7;90;97390;;;;
2022/12/09 22:37:42;;;;;;;13.6;8;;;;;;;1.7;89.9;97390;;;;
2022/12/09 22:48:42;;;;;;;13.6;8;;;;;;;1.7;89.8;97380;;;;
2022/12/09 22:59:42;;;;;;;13.6;8;;;;;;;1.7;89.7;97370;;;;
2022/12/09 23:09:42;;;;;;;15.6;8.8;;;;;;;1.8;89.8;97370;;;;
2022/12/09 23:20:42;;;;;;;15.6;8.8;;;;;;;1.8;89.6;97370;;;;
2022/12/09 23:31:42;;;;;;;15.6;8.8;;;;;;;1.9;89.5;97370;;;;
2022/12/09 23:41:42;;;;;;;16.1;8.3;;;;;;;2;89.3;97360;;;;
2022/12/09 23:52:42;;;;;;;16.1;8.3;;;;;;;2;89;97350;;;;
